createdAt,value
2022-09-06T00:02:20.162Z,3.15
2022-09-06T00:04:46.974Z,3.05
2022-09-06T00:07:13.801Z,2.85
2022-09-06T00:09:40.976Z,3.10
2022-09-06T00:12:08.003Z,2.90
2022-09-06T00:14:34.671Z,3.40
2022-09-06T00:17:01.577Z,3.58
2022-09-06T00:19:28.252Z,2.97
2022-09-06T00:21:54.930Z,3.20
2022-09-06T00:24:21.605Z,3.10
2022-09-06T00:26:48.310Z,2.85
2022-09-06T00:29:15.075Z,3.30
2022-09-06T00:31:41.837Z,3.10
2022-09-06T00:34:08.665Z,3.20
2022-09-06T00:36:35.555Z,3.30
2022-09-06T00:39:02.699Z,3.00
2022-09-06T00:41:29.654Z,2.95
2022-09-06T00:43:56.445Z,3.17
2022-09-06T00:46:31.041Z,2.72
2022-09-06T00:51:35.462Z,3.10
2022-09-06T00:54:04.568Z,3.13
2022-09-06T00:56:33.210Z,3.40
2022-09-06T00:59:01.011Z,2.83
2022-09-06T01:01:28.082Z,3.20
2022-09-06T01:03:55.164Z,3.35
2022-09-06T01:06:28.231Z,3.20
2022-09-06T01:09:23.607Z,3.05
2022-09-06T01:11:59.341Z,3.28
2022-09-06T01:14:45.090Z,3.35
2022-09-06T01:17:25.937Z,3.20
2022-09-06T01:20:23.724Z,2.72
2022-09-06T01:23:35.685Z,3.13
2022-09-06T01:26:11.045Z,3.92
2022-09-06T01:28:45.605Z,3.70
2022-09-06T01:34:00.229Z,3.10
2022-09-06T01:36:32.781Z,3.45
2022-09-06T01:38:59.466Z,3.53
2022-09-06T01:41:26.548Z,3.60
2022-09-06T01:43:55.511Z,3.70
2022-09-06T01:46:31.433Z,3.67
2022-09-06T01:49:04.271Z,3.25
2022-09-06T01:51:42.582Z,3.20
2022-09-06T01:54:39.799Z,3.10
2022-09-06T01:57:18.702Z,3.67
2022-09-06T02:00:08.975Z,3.58
2022-09-06T02:03:00.093Z,3.67
2022-09-06T02:05:53.236Z,3.70
2022-09-06T02:08:32.576Z,3.72
2022-09-06T02:11:02.456Z,3.95
2022-09-06T02:13:52.343Z,4.03
2022-09-06T02:16:23.417Z,3.50
2022-09-06T02:18:56.191Z,4.00
2022-09-06T02:21:29.672Z,4.03
2022-09-06T02:24:00.574Z,4.03
2022-09-06T02:26:30.412Z,3.70
2022-09-06T02:28:57.588Z,3.85
2022-09-06T02:31:41.764Z,4.20
2022-09-06T02:34:11.015Z,3.63
2022-09-06T02:36:38.117Z,4.25
2022-09-06T02:39:05.830Z,4.40
2022-09-06T02:41:33.369Z,4.32
2022-09-06T02:44:00.074Z,4.25
2022-09-06T02:46:26.853Z,4.32
2022-09-06T02:48:53.744Z,4.28
2022-09-06T02:51:20.735Z,4.00
2022-09-06T02:53:47.820Z,3.88
2022-09-06T02:56:14.664Z,4.50
2022-09-06T02:58:41.771Z,4.78
2022-09-06T03:01:09.101Z,4.28
2022-09-06T03:03:36.043Z,3.92
2022-09-06T03:06:02.787Z,4.47
2022-09-06T03:08:33.558Z,4.50
2022-09-06T03:11:01.189Z,4.47
2022-09-06T03:13:27.925Z,4.10
2022-09-06T03:15:56.987Z,4.28
2022-09-06T03:18:25.237Z,3.85
2022-09-06T03:20:53.183Z,4.25
2022-09-06T03:23:21.764Z,4.20
2022-09-06T03:25:48.447Z,4.28
2022-09-06T03:28:15.543Z,4.00
2022-09-06T03:30:47.684Z,3.97
2022-09-06T03:33:15.199Z,3.85
2022-09-06T03:35:51.711Z,3.72
2022-09-06T03:38:18.749Z,3.90
2022-09-06T03:40:49.151Z,3.90
2022-09-06T03:43:17.551Z,3.80
2022-09-06T03:45:49.171Z,3.75
2022-09-06T03:48:17.212Z,3.90
2022-09-06T03:50:53.121Z,4.13
2022-09-06T03:53:20.866Z,4.78
2022-09-06T03:55:49.714Z,4.70
2022-09-06T03:58:18.479Z,4.40
2022-09-06T04:00:45.701Z,4.50
2022-09-06T04:03:13.126Z,4.57
2022-09-06T04:05:40.010Z,4.85
2022-09-06T04:08:06.740Z,4.82
2022-09-06T04:10:33.904Z,4.63
2022-09-06T04:13:00.811Z,5.10
2022-09-06T04:15:28.632Z,5.13
2022-09-06T04:17:55.558Z,5.38
2022-09-06T04:20:22.350Z,5.10
2022-09-06T04:22:49.069Z,5.20
2022-09-06T04:25:15.824Z,5.70
2022-09-06T04:27:42.475Z,5.18
2022-09-06T04:30:09.620Z,5.18
2022-09-06T04:32:36.285Z,5.30
2022-09-06T04:35:03.174Z,6.40
2022-09-06T04:37:29.861Z,5.30
2022-09-06T04:39:56.857Z,5.40
2022-09-06T04:42:23.570Z,5.32
2022-09-06T04:44:50.289Z,5.25
2022-09-06T04:47:19.276Z,5.40
2022-09-06T04:49:46.866Z,6.55
2022-09-06T04:52:13.645Z,6.03
2022-09-06T04:54:40.351Z,6.50
2022-09-06T04:57:07.069Z,6.57
2022-09-06T04:59:34.019Z,6.45
2022-09-06T05:02:00.721Z,6.82
2022-09-06T05:04:27.440Z,7.68
2022-09-06T05:07:09.578Z,6.80
2022-09-06T05:09:36.865Z,7.30
2022-09-06T05:12:03.918Z,7.18
2022-09-06T05:14:31.068Z,7.28
2022-09-06T05:16:58.225Z,6.68
2022-09-06T05:19:25.170Z,6.55
2022-09-06T05:21:52.330Z,6.95
2022-09-06T05:24:19.316Z,6.03
2022-09-06T05:26:46.054Z,5.95
2022-09-06T05:29:13.069Z,6.30
2022-09-06T05:31:39.896Z,5.97
2022-09-06T05:34:06.698Z,6.13
2022-09-06T05:36:33.765Z,5.35
2022-09-06T05:39:00.539Z,5.90
2022-09-06T05:41:27.772Z,6.30
2022-09-06T05:43:54.503Z,6.57
2022-09-06T05:46:21.476Z,6.63
2022-09-06T05:48:56.216Z,6.18
2022-09-06T05:51:22.948Z,6.35
2022-09-06T05:53:49.891Z,6.40
2022-09-06T05:56:17.787Z,6.03
2022-09-06T05:58:44.640Z,5.80
2022-09-06T06:01:30.021Z,5.68
2022-09-06T06:03:57.980Z,5.65
2022-09-06T06:06:26.718Z,5.82
2022-09-06T06:08:53.680Z,5.72
2022-09-06T06:11:20.928Z,7.15
2022-09-06T06:13:47.648Z,6.43
2022-09-06T06:16:16.669Z,5.90
2022-09-06T06:18:47.660Z,4.97
2022-09-06T06:21:21.911Z,6.25
2022-09-06T06:23:54.891Z,4.13
2022-09-06T06:26:21.832Z,4.70
2022-09-06T06:28:49.222Z,4.40
2022-09-06T06:31:16.564Z,4.32
2022-09-06T06:33:44.438Z,4.30
2022-09-06T06:36:14.334Z,4.70
2022-09-06T06:38:43.070Z,3.90
2022-09-06T06:41:12.099Z,3.75
2022-09-06T06:43:39.039Z,3.92
2022-09-06T06:46:07.432Z,3.58
2022-09-06T06:48:40.588Z,3.58
2022-09-06T06:51:09.014Z,3.05
2022-09-06T06:53:35.923Z,3.03
2022-09-06T06:56:20.285Z,3.58
2022-09-06T06:58:48.862Z,3.00
2022-09-06T07:01:16.962Z,2.95
2022-09-06T07:03:44.561Z,3.05
2022-09-06T07:06:12.108Z,2.92
2022-09-06T07:08:40.037Z,3.00
2022-09-06T07:11:08.589Z,2.97
2022-09-06T07:13:35.613Z,2.75
2022-09-06T07:16:18.083Z,2.58
2022-09-06T07:18:45.924Z,2.60
2022-09-06T07:24:06.225Z,2.75
2022-09-06T07:26:34.621Z,2.92
2022-09-06T07:29:03.244Z,2.70
2022-09-06T07:34:18.044Z,2.80
2022-09-06T07:36:44.856Z,2.50
2022-09-06T07:39:11.492Z,2.30
2022-09-06T07:41:38.212Z,2.53
2022-09-06T07:44:04.875Z,2.17
2022-09-06T07:46:31.664Z,2.30
2022-09-06T07:48:58.437Z,2.47
2022-09-06T07:51:25.167Z,2.45
2022-09-06T07:54:12.935Z,2.40
2022-09-06T07:56:42.067Z,2.20
2022-09-06T07:59:09.348Z,2.58
2022-09-06T08:01:38.494Z,2.45
2022-09-06T08:04:08.566Z,3.20
2022-09-06T08:09:25.179Z,2.83
2022-09-06T08:11:52.907Z,2.78
2022-09-06T08:14:20.361Z,3.50
2022-09-06T08:16:47.417Z,3.58
2022-09-06T08:19:14.207Z,3.05
2022-09-06T08:21:42.111Z,2.50
2022-09-06T08:24:12.201Z,3.10
2022-09-06T08:26:43.153Z,2.30
2022-09-06T08:29:11.462Z,2.40
2022-09-06T08:31:40.578Z,2.70
2022-09-06T08:34:07.643Z,2.10
2022-09-06T08:36:34.833Z,2.30
2022-09-06T08:39:04.299Z,2.40
2022-09-06T08:41:57.791Z,2.25
2022-09-06T08:47:20.222Z,2.95
2022-09-06T08:50:07.454Z,2.05
2022-09-06T08:53:17.509Z,4.90
2022-09-06T08:56:04.366Z,3.38
2022-09-06T08:58:57.483Z,2.92
2022-09-06T09:01:29.963Z,2.45
2022-09-06T09:03:58.910Z,2.63
2022-09-06T09:06:27.306Z,2.60
2022-09-06T09:09:13.355Z,2.22
2022-09-06T09:11:43.748Z,2.22
2022-09-06T09:14:27.944Z,2.40
2022-09-06T09:16:58.975Z,2.20
2022-09-06T09:19:25.732Z,2.53
2022-09-06T09:21:52.509Z,2.20
2022-09-06T09:24:19.209Z,2.10
2022-09-06T09:26:51.919Z,2.38
2022-09-06T09:29:21.695Z,2.47
2022-09-06T09:31:54.168Z,3.58
2022-09-06T09:34:41.297Z,4.30
2022-09-06T09:40:01.476Z,4.03
2022-09-06T09:42:35.562Z,3.78
2022-09-06T09:45:22.749Z,6.22
2022-09-06T09:47:49.574Z,2.40
2022-09-06T09:50:35.657Z,2.58
2022-09-06T09:53:15.192Z,3.17
2022-09-06T09:55:42.338Z,2.40
2022-09-06T09:58:27.680Z,2.40
2022-09-06T10:01:16.245Z,2.42
2022-09-06T10:09:30.146Z,3.63
2022-09-06T10:11:59.310Z,2.35
2022-09-06T10:14:30.638Z,2.40
2022-09-06T10:16:59.064Z,2.63
2022-09-06T10:19:42.429Z,2.83
2022-09-06T10:22:26.212Z,2.83
2022-09-06T10:25:01.984Z,2.60
2022-09-06T10:27:28.967Z,2.30
2022-09-06T10:30:02.958Z,2.65
2022-09-06T10:32:40.273Z,2.63
2022-09-06T10:35:31.637Z,2.38
2022-09-06T10:38:25.009Z,2.70
2022-09-06T10:41:09.771Z,2.55
2022-09-06T10:46:32.411Z,2.55
2022-09-06T10:48:59.870Z,2.50
2022-09-06T10:51:34.960Z,2.38
2022-09-06T10:54:12.166Z,2.28
2022-09-06T10:56:43.850Z,2.85
2022-09-06T10:59:36.968Z,2.97
2022-09-06T11:02:30.210Z,2.95
2022-09-06T11:10:55.581Z,2.75
2022-09-06T11:13:26.764Z,3.30
2022-09-06T11:16:08.791Z,3.47
2022-09-06T11:18:51.804Z,3.05
2022-09-06T11:21:40.385Z,2.47
2022-09-06T11:24:11.163Z,2.95
2022-09-06T11:26:59.621Z,2.70
2022-09-06T11:29:29.043Z,2.50
2022-09-06T11:32:18.134Z,3.05
2022-09-06T11:34:55.091Z,2.72
2022-09-06T11:37:28.315Z,2.92
2022-09-06T11:42:56.990Z,2.80
2022-09-06T11:45:51.604Z,2.60
2022-09-06T11:48:24.472Z,2.78
2022-09-06T11:50:54.174Z,2.65
2022-09-06T11:53:23.952Z,2.72
2022-09-06T11:56:10.419Z,2.78
2022-09-06T11:58:40.143Z,2.78
2022-09-06T12:01:13.154Z,2.75
2022-09-06T12:06:41.483Z,3.03
2022-09-06T12:09:38.372Z,2.67
2022-09-06T12:12:05.505Z,2.63
2022-09-06T12:14:46.106Z,3.22
2022-09-06T12:17:12.783Z,2.80
2022-09-06T12:20:06.921Z,3.00
2022-09-06T12:22:33.825Z,2.90
2022-09-06T12:25:35.993Z,3.15
2022-09-06T12:28:05.070Z,3.20
2022-09-06T12:30:36.098Z,3.28
2022-09-06T12:33:17.951Z,3.83
2022-09-06T12:38:24.754Z,3.10
2022-09-06T12:40:56.318Z,3.08
2022-09-06T12:43:23.112Z,2.90
2022-09-06T12:45:52.173Z,2.83
2022-09-06T12:48:30.886Z,3.35
2022-09-06T12:51:16.298Z,3.35
2022-09-06T12:54:00.713Z,2.97
2022-09-06T12:56:30.011Z,2.58
2022-09-06T12:59:14.281Z,2.47
2022-09-06T13:01:49.785Z,3.33
2022-09-06T13:04:47.156Z,3.50
2022-09-06T13:07:17.526Z,3.35
2022-09-06T13:09:49.001Z,3.70
2022-09-06T13:12:36.793Z,2.95
2022-09-06T13:15:25.294Z,3.05
2022-09-06T13:17:54.016Z,2.97
2022-09-06T13:20:30.187Z,3.40
2022-09-06T13:23:12.440Z,2.90
2022-09-06T13:25:50.797Z,3.15
2022-09-06T13:28:26.019Z,3.03
2022-09-06T13:31:18.821Z,2.80
2022-09-06T13:33:54.530Z,3.10
2022-09-06T13:36:24.743Z,3.00
2022-09-06T13:38:51.445Z,3.00
2022-09-06T13:41:27.512Z,3.15
2022-09-06T13:44:19.843Z,2.88
2022-09-06T13:46:46.994Z,2.88
2022-09-06T13:49:14.524Z,2.85
2022-09-06T13:51:43.351Z,3.25
2022-09-06T13:54:14.137Z,3.25
2022-09-06T13:56:42.622Z,2.60
2022-09-06T13:59:12.241Z,2.80
2022-09-06T14:01:41.470Z,2.90
2022-09-06T14:04:14.295Z,3.13
2022-09-06T14:06:41.283Z,2.80
2022-09-06T14:09:09.109Z,3.33
2022-09-06T14:11:36.832Z,3.50
2022-09-06T14:14:04.103Z,2.90
2022-09-06T14:16:31.592Z,3.22
2022-09-06T14:18:58.548Z,3.50
2022-09-06T14:21:26.345Z,3.22
2022-09-06T14:23:53.450Z,3.00
2022-09-06T14:26:21.591Z,3.40
2022-09-06T14:28:49.046Z,3.40
2022-09-06T14:31:19.499Z,3.67
2022-09-06T14:33:46.837Z,3.55
2022-09-06T14:36:16.158Z,3.20
2022-09-06T14:38:44.434Z,3.58
2022-09-06T14:41:14.475Z,3.40
2022-09-06T14:43:47.597Z,3.78
2022-09-06T14:46:15.452Z,3.72
2022-09-06T14:48:43.184Z,3.33
2022-09-06T14:51:24.019Z,3.50
2022-09-06T14:53:56.673Z,3.28
2022-09-06T14:56:24.361Z,3.20
2022-09-06T14:58:51.126Z,3.28
2022-09-06T15:01:21.045Z,3.83
2022-09-06T15:03:53.994Z,3.53
2022-09-06T15:06:22.822Z,3.45
2022-09-06T15:08:50.524Z,3.47
2022-09-06T15:11:35.228Z,3.05
2022-09-06T15:14:24.691Z,3.70
2022-09-06T15:16:55.826Z,3.92
2022-09-06T15:19:24.887Z,3.75
2022-09-06T15:21:51.659Z,3.75
2022-09-06T15:24:18.631Z,3.83
2022-09-06T15:26:46.143Z,3.75
2022-09-06T15:29:14.043Z,4.50
2022-09-06T15:31:42.092Z,4.30
2022-09-06T15:34:09.986Z,3.60
2022-09-06T15:36:37.644Z,3.80
2022-09-06T15:39:05.458Z,4.07
2022-09-06T15:41:35.601Z,3.20
2022-09-06T15:44:11.792Z,3.72
2022-09-06T15:46:47.272Z,4.05
2022-09-06T15:49:17.280Z,3.78
2022-09-06T15:51:44.794Z,3.53
2022-09-06T15:54:13.117Z,3.63
2022-09-06T15:56:40.402Z,5.53
2022-09-06T15:59:07.236Z,7.60
2022-09-06T16:01:34.277Z,6.53
2022-09-06T16:04:08.646Z,4.95
2022-09-06T16:06:42.541Z,4.18
2022-09-06T16:09:14.038Z,4.18
2022-09-06T16:11:41.880Z,4.00
2022-09-06T16:14:11.488Z,4.95
2022-09-06T16:16:39.782Z,4.57
2022-09-06T16:19:07.233Z,5.07
2022-09-06T16:21:36.994Z,7.40
2022-09-06T16:24:06.855Z,7.25
2022-09-06T16:26:37.136Z,6.95
2022-09-06T16:29:05.749Z,7.40
2022-09-06T16:31:40.107Z,12.57
2022-09-06T16:34:08.659Z,12.68
2022-09-06T16:36:35.511Z,8.43
2022-09-06T16:39:02.250Z,9.90
2022-09-06T16:41:32.678Z,6.57
2022-09-06T16:43:59.506Z,6.68
2022-09-06T16:46:28.885Z,6.15
2022-09-06T16:49:01.529Z,5.38
2022-09-06T16:51:29.477Z,4.85
2022-09-06T16:53:56.902Z,4.90
2022-09-06T16:56:26.866Z,4.72
2022-09-06T16:58:55.835Z,8.27
2022-09-06T17:01:24.014Z,9.50
2022-09-06T17:03:51.467Z,6.70
2022-09-06T17:06:19.450Z,6.03
2022-09-06T17:08:46.741Z,6.50
2022-09-06T17:11:19.200Z,8.07
2022-09-06T17:13:47.819Z,7.75
2022-09-06T17:16:33.702Z,10.30
2022-09-06T17:19:02.033Z,7.10
2022-09-06T17:21:30.302Z,6.13
2022-09-06T17:23:59.285Z,7.65
2022-09-06T17:26:26.010Z,5.47
2022-09-06T17:28:52.874Z,5.90
2022-09-06T17:31:25.029Z,5.32
2022-09-06T17:33:53.577Z,4.40
2022-09-06T17:36:23.726Z,4.80
2022-09-06T17:38:53.503Z,4.30
2022-09-06T17:41:27.474Z,4.80
2022-09-06T17:43:55.317Z,4.90
2022-09-06T17:46:28.538Z,4.60
2022-09-06T17:48:56.099Z,4.95
2022-09-06T17:51:23.198Z,4.53
2022-09-06T17:53:50.409Z,5.22
2022-09-06T17:56:19.070Z,5.70
2022-09-06T17:59:15.736Z,5.53
2022-09-06T18:01:44.532Z,5.30
2022-09-06T18:04:12.511Z,4.80
2022-09-06T18:06:41.658Z,5.47
2022-09-06T18:09:12.739Z,5.55
2022-09-06T18:11:40.077Z,6.15
2022-09-06T18:14:11.899Z,4.90
2022-09-06T18:16:40.399Z,5.40
2022-09-06T18:19:08.434Z,5.50
2022-09-06T18:21:37.550Z,4.93
2022-09-06T18:24:05.238Z,5.65
2022-09-06T18:26:32.373Z,5.35
2022-09-06T18:28:59.482Z,5.68
2022-09-06T18:31:27.718Z,5.72
2022-09-06T18:33:58.940Z,5.72
2022-09-06T18:36:31.184Z,5.30
2022-09-06T18:39:04.936Z,5.00
2022-09-06T18:41:51.519Z,5.20
2022-09-06T18:44:18.454Z,5.38
2022-09-06T18:46:45.387Z,5.00
2022-09-06T18:49:14.174Z,5.40
2022-09-06T18:51:41.642Z,4.82
2022-09-06T18:54:10.107Z,5.00
2022-09-06T18:56:36.960Z,4.70
2022-09-06T18:59:05.208Z,4.53
2022-09-06T19:01:32.950Z,5.40
2022-09-06T19:04:01.255Z,4.97
2022-09-06T19:06:29.983Z,4.95
2022-09-06T19:09:01.819Z,4.90
2022-09-06T19:11:29.223Z,5.68
2022-09-06T19:13:57.160Z,5.10
2022-09-06T19:16:25.946Z,5.30
2022-09-06T19:18:57.009Z,5.28
2022-09-06T19:21:25.527Z,5.10
2022-09-06T19:23:58.653Z,4.95
2022-09-06T19:26:29.314Z,5.82
2022-09-06T19:29:02.056Z,5.57
2022-09-06T19:31:31.851Z,5.40
2022-09-06T19:33:59.095Z,5.20
2022-09-06T19:36:27.811Z,5.93
2022-09-06T19:39:03.708Z,5.20
2022-09-06T19:41:35.780Z,4.80
2022-09-06T19:44:05.463Z,5.07
2022-09-06T19:46:32.335Z,5.40
2022-09-06T19:49:00.527Z,5.13
2022-09-06T19:51:27.400Z,4.45
2022-09-06T19:53:59.975Z,5.28
2022-09-06T19:56:33.329Z,5.90
2022-09-06T19:59:06.046Z,5.90
2022-09-06T20:01:34.705Z,5.10
2022-09-06T20:04:03.792Z,5.10
2022-09-06T20:06:31.490Z,5.57
2022-09-06T20:09:00.011Z,5.72
2022-09-06T20:11:29.250Z,5.68
2022-09-06T20:13:56.161Z,5.53
2022-09-06T20:16:24.823Z,5.30
2022-09-06T20:18:52.674Z,5.03
2022-09-06T20:21:20.988Z,5.32
2022-09-06T20:23:52.428Z,5.30
2022-09-06T20:26:20.082Z,5.53
2022-09-06T20:28:47.419Z,6.00
2022-09-06T20:31:16.761Z,6.50
2022-09-06T20:33:49.205Z,6.07
2022-09-06T20:36:17.667Z,5.88
2022-09-06T20:38:45.981Z,5.65
2022-09-06T20:41:18.562Z,6.28
2022-09-06T20:43:46.518Z,6.30
2022-09-06T20:46:18.838Z,5.97
2022-09-06T20:48:46.572Z,6.18
2022-09-06T20:51:19.459Z,6.82
2022-09-06T20:53:48.806Z,5.65
2022-09-06T20:56:18.227Z,6.10
2022-09-06T20:58:53.439Z,6.15
2022-09-06T21:01:23.000Z,6.25
2022-09-06T21:03:52.464Z,6.30
2022-09-06T21:06:20.577Z,5.68
2022-09-06T21:08:48.865Z,6.25
2022-09-06T21:11:15.948Z,8.70
2022-09-06T21:13:42.707Z,9.32
2022-09-06T21:16:09.736Z,8.30
2022-09-06T21:18:36.822Z,8.85
2022-09-06T21:21:06.891Z,8.45
2022-09-06T21:23:36.337Z,8.48
2022-09-06T21:26:11.166Z,6.88
2022-09-06T21:28:41.707Z,6.35
2022-09-06T21:31:11.872Z,7.53
2022-09-06T21:33:44.215Z,6.80
2022-09-06T21:36:13.961Z,7.32
2022-09-06T21:38:43.009Z,7.15
2022-09-06T21:41:11.357Z,7.10
2022-09-06T21:43:38.667Z,7.40
2022-09-06T21:46:08.118Z,6.85
2022-09-06T21:48:39.171Z,6.68
2022-09-06T21:51:10.216Z,7.50
2022-09-06T21:53:37.663Z,7.45
2022-09-06T21:56:05.525Z,7.50
2022-09-06T21:58:33.111Z,6.88
2022-09-06T22:01:01.481Z,8.00
2022-09-06T22:03:31.014Z,6.68
2022-09-06T22:05:58.532Z,6.72
2022-09-06T22:08:26.000Z,7.22
2022-09-06T22:10:52.851Z,8.13
2022-09-06T22:13:20.373Z,7.90
2022-09-06T22:15:47.342Z,6.90
2022-09-06T22:18:14.110Z,7.03
2022-09-06T22:20:40.849Z,6.75
2022-09-06T22:23:08.375Z,7.15
2022-09-06T22:25:35.375Z,7.05
2022-09-06T22:28:02.252Z,6.82
2022-09-06T22:30:29.168Z,7.53
2022-09-06T22:32:56.148Z,7.35
2022-09-06T22:35:22.878Z,7.32
2022-09-06T22:37:50.140Z,7.05
2022-09-06T22:40:16.912Z,7.90
2022-09-06T22:42:43.643Z,8.25
2022-09-06T22:45:10.562Z,7.75
2022-09-06T22:47:37.231Z,7.45
2022-09-06T22:50:04.298Z,7.80
2022-09-06T22:52:31.048Z,7.30
2022-09-06T22:54:57.740Z,7.30
2022-09-06T22:57:25.367Z,8.18
2022-09-06T22:59:52.071Z,7.35
2022-09-06T23:02:18.787Z,8.15
2022-09-06T23:04:46.044Z,8.07
2022-09-06T23:07:13.049Z,8.35
2022-09-06T23:09:39.933Z,8.32
2022-09-06T23:12:06.747Z,8.77
2022-09-06T23:14:33.437Z,9.20
2022-09-06T23:17:00.183Z,8.43
2022-09-06T23:19:26.870Z,8.65
2022-09-06T23:21:53.675Z,9.60
2022-09-06T23:24:20.356Z,8.60
2022-09-06T23:26:47.037Z,9.07
2022-09-06T23:29:13.776Z,9.70
2022-09-06T23:31:40.526Z,9.82
2022-09-06T23:34:07.443Z,9.38
2022-09-06T23:36:34.162Z,9.02
2022-09-06T23:39:02.342Z,8.85
2022-09-06T23:41:29.559Z,9.50
2022-09-06T23:43:56.522Z,9.15
2022-09-06T23:46:23.357Z,8.85
2022-09-06T23:48:50.259Z,9.10
2022-09-06T23:51:16.992Z,8.38
2022-09-06T23:53:43.915Z,10.05
2022-09-06T23:56:11.108Z,9.82
2022-09-06T23:58:38.711Z,10.32
